createdAt,value
2019-02-11T00:01:26.548Z,20.2
2019-02-11T00:11:27.992Z,21.7
2019-02-11T00:21:26.785Z,24.6
2019-02-11T00:31:26.584Z,24.8
2019-02-11T00:41:26.909Z,23.1
2019-02-11T00:51:27.391Z,28.3
2019-02-11T01:01:26.982Z,30.7
2019-02-11T01:11:28.214Z,29.0
2019-02-11T01:21:28.483Z,30.0
2019-02-11T01:31:27.600Z,35.3
2019-02-11T01:41:27.658Z,26.9
2019-02-11T01:51:26.355Z,21.5
2019-02-11T02:01:28.706Z,17.0
2019-02-11T02:11:26.393Z,16.5
2019-02-11T02:21:27.536Z,11.0
2019-02-11T02:31:27.218Z,8.3
2019-02-11T02:41:26.834Z,11.5
2019-02-11T02:51:27.592Z,11.9
2019-02-11T03:01:27.189Z,12.1
2019-02-11T03:11:27.454Z,10.1
2019-02-11T03:21:27.421Z,10.3
2019-02-11T03:31:27.366Z,9.6
2019-02-11T03:41:27.828Z,8.6
2019-02-11T03:51:26.921Z,9.1
2019-02-11T04:01:26.819Z,12.1
2019-02-11T04:11:26.503Z,10.8
2019-02-11T04:21:26.747Z,12.3
2019-02-11T04:31:26.975Z,7.1
2019-02-11T04:41:26.913Z,10.8
2019-02-11T04:51:27.158Z,6.8
2019-02-11T05:01:27.095Z,8.2
2019-02-11T05:11:27.273Z,8.6
2019-02-11T05:21:27.368Z,7.9
2019-02-11T05:31:26.642Z,8.7
2019-02-11T05:41:28.386Z,7.4
2019-02-11T05:51:26.895Z,9.8
2019-02-11T06:01:27.466Z,8.4
2019-02-11T06:11:27.388Z,10.0
2019-02-11T06:21:27.233Z,10.9
2019-02-11T06:31:27.819Z,9.6
2019-02-11T06:41:27.578Z,8.3
2019-02-11T06:51:27.608Z,9.3
2019-02-11T07:01:28.857Z,10.2
2019-02-11T07:11:27.098Z,7.9
2019-02-11T07:21:27.224Z,10.1
2019-02-11T07:31:27.660Z,10.1
2019-02-11T07:41:28.805Z,9.0
2019-02-11T07:51:26.652Z,6.6
2019-02-11T08:01:33.034Z,6.3
2019-02-11T08:11:32.336Z,5.7
2019-02-11T08:21:34.653Z,4.8
2019-02-11T08:31:33.800Z,4.6
2019-02-11T08:41:32.240Z,4.3
2019-02-11T08:51:27.748Z,3.8
2019-02-11T09:01:26.244Z,5.8
2019-02-11T09:11:27.186Z,5.3
2019-02-11T09:21:27.227Z,8.4
2019-02-11T09:31:26.903Z,3.9
2019-02-11T09:41:28.169Z,6.2
2019-02-11T09:51:26.714Z,4.4
2019-02-11T10:01:26.363Z,4.7
2019-02-11T10:11:26.944Z,8.9
2019-02-11T10:21:27.340Z,3.7
2019-02-11T10:31:26.932Z,4.2
2019-02-11T10:41:27.618Z,5.8
2019-02-11T10:51:27.246Z,4.9
2019-02-11T11:01:26.816Z,11.7
2019-02-11T11:11:27.054Z,8.9
2019-02-11T11:21:27.858Z,11.5
2019-02-11T11:31:26.405Z,9.8
2019-02-11T11:41:27.784Z,5.6
2019-02-11T11:51:27.307Z,4.9
2019-02-11T12:01:27.958Z,8.2
2019-02-11T12:11:26.613Z,4.5
2019-02-11T12:21:28.745Z,4.5
2019-02-11T12:31:26.668Z,7.2
2019-02-11T12:41:27.590Z,9.5
2019-02-11T12:51:27.230Z,7.4
2019-02-11T13:01:27.040Z,7.9
2019-02-11T13:11:26.760Z,7.3
2019-02-11T13:21:27.432Z,8.3
2019-02-11T13:31:27.961Z,8.9
2019-02-11T13:41:26.658Z,11.0
2019-02-11T13:51:27.855Z,8.6
2019-02-11T14:01:26.538Z,13.6
2019-02-11T14:11:27.317Z,11.6
2019-02-11T14:21:27.220Z,10.2
2019-02-11T14:31:31.839Z,16.2
2019-02-11T14:41:26.776Z,16.9
2019-02-11T14:51:28.902Z,18.1
2019-02-11T15:01:26.507Z,18.9
2019-02-11T15:11:27.894Z,14.7
2019-02-11T15:21:27.552Z,15.8
2019-02-11T15:31:27.115Z,19.7
2019-02-11T15:41:27.104Z,18.8
2019-02-11T15:51:27.699Z,28.8
2019-02-11T16:01:26.523Z,32.7
2019-02-11T16:11:27.135Z,21.5
2019-02-11T16:21:27.809Z,26.4
2019-02-11T16:31:26.443Z,16.8
2019-02-11T16:41:27.708Z,16.0
2019-02-11T16:51:26.285Z,13.1
2019-02-11T17:01:28.704Z,19.3
2019-02-11T17:11:27.500Z,15.3
2019-02-11T17:21:26.272Z,17.0
2019-02-11T17:31:27.431Z,17.1
2019-02-11T17:41:27.165Z,28.0
2019-02-11T17:51:27.245Z,12.7
2019-02-11T18:01:33.640Z,10.7
2019-02-11T18:11:27.458Z,9.8
2019-02-11T18:21:28.563Z,12.1
2019-02-11T18:31:30.616Z,14.3
2019-02-11T18:41:27.181Z,11.8
2019-02-11T18:51:27.303Z,15.0
2019-02-11T19:01:26.948Z,17.6
2019-02-11T19:11:27.154Z,14.1
2019-02-11T19:21:27.987Z,10.2
2019-02-11T19:31:26.827Z,19.5
2019-02-11T19:41:27.378Z,19.9
2019-02-11T19:51:27.991Z,16.8
2019-02-11T20:01:28.058Z,25.3
2019-02-11T20:11:27.091Z,18.1
2019-02-11T20:21:27.081Z,21.6
2019-02-11T20:31:29.068Z,18.4
2019-02-11T20:41:27.409Z,19.0
2019-02-11T20:51:26.985Z,22.5
2019-02-11T21:01:26.586Z,19.7
2019-02-11T21:11:28.324Z,15.7
2019-02-11T21:21:27.229Z,12.6
2019-02-11T21:31:28.104Z,16.2
2019-02-11T21:41:28.203Z,19.3
2019-02-11T21:51:26.663Z,20.9
2019-02-11T22:01:28.113Z,21.9
2019-02-11T22:11:27.399Z,18.0
2019-02-11T22:21:27.147Z,18.1
2019-02-11T22:31:26.831Z,14.6
2019-02-11T22:41:27.352Z,18.1
2019-02-11T22:51:27.103Z,17.0
2019-02-11T23:01:28.172Z,17.0
2019-02-11T23:11:27.996Z,9.7
2019-02-11T23:21:26.920Z,14.0
2019-02-11T23:31:28.511Z,17.6
2019-02-11T23:41:27.826Z,14.5
2019-02-11T23:51:27.245Z,18.9
